Time;durP1;ratioP1;P1;durP2;ratioP2;P2;SDS_P1;SDS_P2;PMS_P1;PMS_P2;Temp;Humidity;BMP_temperature;BMP_pressure;BME280_temperature;BME280_humidity;BME280_pressure;Samples;Min_cycle;Max_cycle;Signal;HPM_P1;HPM_P2
2022/09/09 00:01:13;;;;;;;4.47;1.60;;;16.60;97.40;;;;;;6136286;23;20520;-91
2022/09/09 00:07:03;;;;;;;5.33;1.60;;;16.60;96.30;;;;;;6135412;23;20519;-90
2022/09/09 00:09:49;;;;;;;5.73;1.30;;;16.50;96.70;;;;;;6113245;23;20151;-90
2022/09/09 00:12:48;;;;;;;4.17;1.50;;;16.50;97.20;;;;;;6115221;23;20164;-91
2022/09/09 00:15:25;;;;;;;4.37;1.43;;;16.50;97.10;;;;;;6112924;23;20151;-90
2022/09/09 00:21:22;;;;;;;3.13;1.37;;;16.50;97.90;;;;;;6137901;23;20166;-91
2022/09/09 00:23:55;;;;;;;2.93;1.27;;;16.50;97.50;;;;;;6106516;23;20174;-91
2022/09/09 00:26:42;;;;;;;3.13;1.23;;;16.50;97.40;;;;;;6105827;23;20144;-91
2022/09/09 00:30:04;;;;;;;6.13;1.50;;;16.50;97.90;;;;;;6105082;23;20225;-91
2022/09/09 00:33:08;;;;;;;3.60;1.43;;;16.40;98.40;;;;;;6110313;23;20229;-91
2022/09/09 00:36:12;;;;;;;3.07;1.23;;;16.50;98.90;;;;;;6125558;23;20154;-89
2022/09/09 00:38:55;;;;;;;4.73;1.60;;;16.50;98.60;;;;;;6127353;23;20204;-90
2022/09/09 00:41:59;;;;;;;4.23;1.73;;;16.50;98.50;;;;;;6103493;23;20167;-90
2022/09/09 00:44:39;;;;;;;3.77;1.67;;;16.60;97.90;;;;;;6129222;23;20230;-89
2022/09/09 00:50:36;;;;;;;3.93;1.53;;;16.60;98.00;;;;;;6137171;23;20538;-90
2022/09/09 00:59:55;;;;;;;4.33;1.30;;;16.60;97.40;;;;;;6139635;23;20231;-90
2022/09/09 01:03:17;;;;;;;4.00;1.40;;;16.50;98.10;;;;;;6114166;23;20152;-91
2022/09/09 01:06:16;;;;;;;3.53;1.20;;;16.50;98.30;;;;;;6115881;23;20158;-90
2022/09/09 01:19:14;;;;;;;5.07;1.67;;;16.50;98.40;;;;;;6135015;23;20197;-89
2022/09/09 01:28:52;;;;;;;6.97;1.47;;;16.40;99.10;;;;;;6136644;23;20612;-89
2022/09/09 01:34:41;;;;;;;5.90;1.70;;;16.40;99.90;;;;;;6138177;23;20183;-91
2022/09/09 01:37:12;;;;;;;5.70;1.50;;;16.50;99.90;;;;;;6106971;23;20261;-91
2022/09/09 01:43:00;;;;;;;5.73;1.57;;;16.40;99.90;;;;;;6134462;23;20170;-90
2022/09/09 01:45:36;;;;;;;4.97;1.60;;;16.50;99.90;;;;;;6110359;23;20164;-92
2022/09/09 01:48:51;;;;;;;9.03;2.00;;;16.50;99.90;;;;;;6107480;23;20177;-92
2022/09/09 01:51:37;;;;;;;5.37;1.83;;;16.50;99.90;;;;;;6105618;23;20230;-91
2022/09/09 01:54:46;;;;;;;6.33;2.00;;;16.40;99.90;;;;;;6130080;23;20158;-91
2022/09/09 02:00:39;;;;;;;5.93;1.93;;;16.40;99.90;;;;;;6139014;23;20151;-91
2022/09/09 02:03:25;;;;;;;6.27;1.83;;;16.50;99.90;;;;;;6130015;23;20225;-90
2022/09/09 02:06:29;;;;;;;5.37;1.90;;;16.40;99.90;;;;;;6118507;23;20144;-91
2022/09/09 02:09:04;;;;;;;7.73;2.40;;;16.40;99.90;;;;;;6115509;23;20155;-89
2022/09/09 02:15:23;;;;;;;6.60;1.70;;;16.40;99.90;;;;;;6132506;23;20162;-90
2022/09/09 02:17:53;;;;;;;7.73;1.97;;;16.40;99.90;;;;;;6106058;23;20192;-90
2022/09/09 02:20:57;;;;;;;7.13;2.07;;;16.40;99.90;;;;;;6110767;23;20155;-91
2022/09/09 02:23:28;;;;;;;7.30;2.33;;;16.30;99.90;;;;;;6130304;23;20143;-90
2022/09/09 02:25:58;;;;;;;9.73;2.23;;;16.40;99.90;;;;;;6113377;23;20250;-91
2022/09/09 02:31:49;;;;;;;6.53;2.30;;;16.30;99.90;;;;;;6132981;23;20148;-91
2022/09/09 02:34:37;;;;;;;5.20;2.30;;;16.40;99.90;;;;;;6105393;23;20190;-91
2022/09/09 02:37:05;;;;;;;7.43;2.20;;;16.30;99.90;;;;;;6106301;23;20234;-91
2022/09/09 02:39:37;;;;;;;6.80;2.30;;;16.40;99.90;;;;;;6106149;23;20209;-91
2022/09/09 02:42:22;;;;;;;9.17;2.43;;;16.40;99.90;;;;;;6106324;23;20146;-91
2022/09/09 02:44:58;;;;;;;6.60;2.27;;;16.40;99.90;;;;;;6105820;23;20197;-90
2022/09/09 03:01:09;;;;;;;7.53;2.30;;;16.40;99.90;;;;;;6131405;23;20533;-91
2022/09/09 03:03:57;;;;;;;8.80;2.63;;;16.30;99.90;;;;;;6110261;23;20164;-91
2022/09/09 03:06:40;;;;;;;6.60;2.30;;;16.40;99.90;;;;;;6154627;23;20160;-90
2022/09/09 03:09:15;;;;;;;6.57;2.33;;;16.30;99.90;;;;;;6129414;23;20162;-89
2022/09/09 03:12:04;;;;;;;9.93;2.20;;;16.30;99.90;;;;;;6128252;23;20156;-90
2022/09/09 03:14:35;;;;;;;7.20;2.17;;;16.30;99.90;;;;;;6129064;23;20139;-90
2022/09/09 03:17:09;;;;;;;7.60;2.27;;;16.30;99.90;;;;;;6152420;23;20163;-91
2022/09/09 03:23:00;;;;;;;7.40;2.70;;;16.30;99.90;;;;;;6134510;23;20142;-90
2022/09/09 03:25:26;;;;;;;8.80;2.23;;;16.30;99.90;;;;;;6106637;23;20155;-92
2022/09/09 03:28:14;;;;;;;8.67;2.03;;;16.40;99.90;;;;;;6105477;23;20230;-92
2022/09/09 03:30:42;;;;;;;7.17;2.10;;;16.30;99.90;;;;;;6104557;23;20168;-90
2022/09/09 03:33:44;;;;;;;8.53;2.70;;;16.40;99.90;;;;;;6104570;23;20150;-91
2022/09/09 03:36:49;;;;;;;7.40;2.27;;;16.30;99.90;;;;;;6108081;23;20152;-91
2022/09/09 03:39:30;;;;;;;9.20;2.20;;;16.30;99.90;;;;;;6129315;23;20192;-93
2022/09/09 03:42:13;;;;;;;10.07;2.77;;;16.30;99.90;;;;;;6155057;23;20128;-91
2022/09/09 03:48:06;;;;;;;7.53;2.33;;;16.20;99.90;;;;;;6151226;23;20190;-92
2022/09/09 03:54:20;;;;;;;9.37;2.33;;;16.30;99.90;;;;;;6129669;23;20181;-91
2022/09/09 03:57:11;;;;;;;7.57;2.30;;;16.30;99.90;;;;;;6109210;23;20162;-91
2022/09/09 03:59:36;;;;;;;7.77;2.20;;;16.30;99.90;;;;;;6106074;23;20233;-92
2022/09/09 04:02:49;;;;;;;7.37;2.30;;;16.20;99.90;;;;;;6113859;23;20160;-92
2022/09/09 04:12:52;;;;;;;9.57;2.70;;;16.30;99.90;;;;;;6135756;23;20154;-91
2022/09/09 04:19:01;;;;;;;10.00;2.90;;;16.30;99.90;;;;;;6155038;23;20193;-90
2022/09/09 04:21:37;;;;;;;9.37;2.20;;;16.30;99.90;;;;;;6131366;23;20174;-91
2022/09/09 04:24:40;;;;;;;9.80;2.33;;;16.20;99.90;;;;;;6120102;23;20147;-91
2022/09/09 04:27:17;;;;;;;10.60;3.20;;;16.20;99.90;;;;;;6114223;23;20610;-91
2022/09/09 04:29:46;;;;;;;9.07;2.97;;;16.30;99.90;;;;;;6113339;23;20170;-91
2022/09/09 04:32:28;;;;;;;10.93;3.23;;;16.30;99.90;;;;;;6139104;23;20162;-90
2022/09/09 04:35:14;;;;;;;12.07;2.63;;;16.20;99.90;;;;;;6113575;23;20154;-92
2022/09/09 04:38:07;;;;;;;9.00;2.70;;;16.30;99.90;;;;;;6089451;23;20273;-91
2022/09/09 04:41:03;;;;;;;14.73;2.73;;;16.20;99.90;;;;;;6112035;23;20162;-91
2022/09/09 04:43:30;;;;;;;9.50;2.67;;;16.20;99.90;;;;;;6088267;23;20162;-92
2022/09/09 04:46:35;;;;;;;11.00;3.03;;;16.10;99.90;;;;;;6093662;23;20176;-91
2022/09/09 04:49:07;;;;;;;8.43;2.60;;;16.20;99.90;;;;;;6115545;23;20158;-91
2022/09/09 04:51:36;;;;;;;8.17;2.67;;;16.20;99.90;;;;;;6129819;23;20154;-91
2022/09/09 04:54:01;;;;;;;11.00;2.80;;;16.20;99.90;;;;;;6130461;23;20152;-91
2022/09/09 04:56:30;;;;;;;13.80;2.93;;;16.30;99.90;;;;;;6130700;23;20174;-90
2022/09/09 04:59:19;;;;;;;10.93;3.13;;;16.20;99.90;;;;;;6130453;23;20240;-90
2022/09/09 05:02:22;;;;;;;14.40;3.17;;;16.20;99.90;;;;;;6130567;23;20160;-91
2022/09/09 05:05:38;;;;;;;11.80;3.43;;;16.20;99.90;;;;;;6155158;23;20156;-91
2022/09/09 05:08:29;;;;;;;10.07;2.87;;;16.20;99.90;;;;;;6122073;23;20167;-90
2022/09/09 05:14:40;;;;;;;13.43;3.40;;;16.20;99.90;;;;;;6155496;23;20174;-90
2022/09/09 05:17:10;;;;;;;14.57;3.40;;;16.20;99.90;;;;;;6129810;23;20175;-89
2022/09/09 05:22:59;;;;;;;14.33;3.47;;;16.20;99.90;;;;;;6154569;23;20140;-89
2022/09/09 05:25:29;;;;;;;9.97;3.20;;;16.20;99.90;;;;;;6129044;23;20166;-89
2022/09/09 05:28:02;;;;;;;8.30;2.90;;;16.20;99.90;;;;;;6119923;23;20226;-92
2022/09/09 05:31:00;;;;;;;10.47;3.00;;;16.30;99.90;;;;;;6107005;23;20159;-91
2022/09/09 05:33:43;;;;;;;11.20;3.57;;;16.30;99.90;;;;;;6108646;23;20162;-92
2022/09/09 05:36:24;;;;;;;9.40;3.20;;;16.30;99.90;;;;;;6110704;23;20151;-91
2022/09/09 05:38:53;;;;;;;9.07;3.03;;;16.30;99.90;;;;;;6120426;23;20246;-90
2022/09/09 05:41:22;;;;;;;10.73;3.33;;;16.30;99.90;;;;;;6141210;23;20123;-90
2022/09/09 05:43:51;;;;;;;17.97;4.37;;;16.40;99.90;;;;;;6119133;23;20161;-89
2022/09/09 05:46:23;;;;;;;11.67;3.27;;;16.40;99.90;;;;;;6115666;23;20151;-90
2022/09/09 05:49:11;;;;;;;12.17;3.00;;;16.40;99.90;;;;;;6147444;23;20184;-90
2022/09/09 05:51:37;;;;;;;11.00;3.97;;;16.40;99.90;;;;;;6118138;23;20133;-89
2022/09/09 05:54:04;;;;;;;11.53;3.07;;;16.50;99.90;;;;;;6111880;23;20147;-88
2022/09/09 05:56:36;;;;;;;6.57;2.73;;;16.50;99.90;;;;;;6115441;23;20162;-93
2022/09/09 05:59:20;;;;;;;13.23;3.47;;;16.50;99.40;;;;;;6118459;23;20170;-90
2022/09/09 06:01:46;;;;;;;9.47;3.20;;;16.50;99.60;;;;;;6111188;23;20158;-91
2022/09/09 06:04:16;;;;;;;10.73;3.23;;;16.50;99.20;;;;;;6087405;23;20151;-90
2022/09/09 06:06:51;;;;;;;10.83;3.20;;;16.50;98.60;;;;;;6111113;23;20167;-89
2022/09/09 06:09:37;;;;;;;10.73;3.00;;;16.50;97.50;;;;;;6111768;23;20233;-90
2022/09/09 06:12:04;;;;;;;8.90;2.60;;;16.60;97.30;;;;;;6111513;23;20150;-90
2022/09/09 06:14:37;;;;;;;6.67;2.83;;;16.70;96.70;;;;;;6110307;23;20160;-89
2022/09/09 06:17:22;;;;;;;12.33;3.47;;;16.80;95.60;;;;;;6110013;23;20180;-91
2022/09/09 06:19:52;;;;;;;9.97;3.00;;;16.80;95.20;;;;;;6111830;23;20147;-93
2022/09/09 06:25:48;;;;;;;10.00;2.77;;;16.90;93.30;;;;;;6136077;23;20224;-92
2022/09/09 06:28:18;;;;;;;11.33;2.60;;;16.90;91.90;;;;;;6104943;23;20588;-96
2022/09/09 06:30:44;;;;;;;10.33;3.10;;;16.90;91.10;;;;;;6106991;23;20144;-91
2022/09/09 06:33:39;;;;;;;11.17;2.63;;;17.00;90.60;;;;;;6109413;23;20222;-91
2022/09/09 06:36:10;;;;;;;8.40;2.60;;;17.10;87.70;;;;;;6108313;23;20184;-91
2022/09/09 06:38:37;;;;;;;11.87;2.93;;;17.10;84.30;;;;;;6108817;23;20230;-90
2022/09/09 06:41:10;;;;;;;9.93;3.00;;;17.20;85.30;;;;;;6111315;23;20206;-89
2022/09/09 06:43:36;;;;;;;10.63;3.07;;;17.00;84.90;;;;;;6115828;23;20151;-89
2022/09/09 06:46:22;;;;;;;10.43;2.83;;;16.90;86.20;;;;;;6111069;23;20155;-90
2022/09/09 06:49:04;;;;;;;11.10;2.60;;;16.80;89.50;;;;;;6114809;23;20171;-90
2022/09/09 06:51:51;;;;;;;9.03;2.97;;;16.80;87.60;;;;;;6122391;23;20158;-91
2022/09/09 06:54:28;;;;;;;8.23;2.40;;;16.90;88.60;;;;;;6115431;23;20222;-94
2022/09/09 06:57:42;;;;;;;12.93;3.00;;;17.00;87.90;;;;;;6094382;23;20168;-91
2022/09/09 07:00:49;;;;;;;9.50;2.67;;;17.00;86.00;;;;;;6122461;23;20234;-90
2022/09/09 07:03:17;;;;;;;10.53;2.70;;;16.90;82.70;;;;;;6113650;23;20153;-89
2022/09/09 07:05:53;;;;;;;10.37;4.27;;;17.00;83.60;;;;;;6113352;23;20144;-91
2022/09/09 07:08:20;;;;;;;11.37;2.43;;;17.10;84.60;;;;;;6117558;23;20158;-93
2022/09/09 07:10:56;;;;;;;10.53;2.80;;;17.00;84.40;;;;;;6085285;23;20228;-89
2022/09/09 07:13:27;;;;;;;11.77;2.53;;;17.10;82.10;;;;;;6106155;23;20164;-88
2022/09/09 07:15:52;;;;;;;10.57;2.53;;;17.10;82.10;;;;;;6109721;23;20149;-90
2022/09/09 07:18:40;;;;;;;10.03;3.20;;;17.10;79.50;;;;;;6137613;23;20186;-89
2022/09/09 07:21:21;;;;;;;9.33;2.70;;;17.10;79.50;;;;;;6081531;23;20158;-90
2022/09/09 07:24:07;;;;;;;6.97;2.70;;;17.20;78.20;;;;;;6114687;23;20143;-89
2022/09/09 07:26:47;;;;;;;10.50;2.57;;;17.20;78.20;;;;;;6105679;23;20498;-88
2022/09/09 07:29:15;;;;;;;11.40;2.67;;;17.30;78.80;;;;;;6106559;23;20147;-89
2022/09/09 07:31:48;;;;;;;12.83;2.97;;;17.20;78.50;;;;;;6105399;23;20139;-88
2022/09/09 07:34:22;;;;;;;7.80;2.70;;;17.20;76.20;;;;;;6134065;23;20147;-89
2022/09/09 07:36:59;;;;;;;11.67;2.57;;;17.30;77.70;;;;;;6138523;23;20579;-93
2022/09/09 07:39:24;;;;;;;12.40;2.67;;;17.20;77.80;;;;;;6123098;23;20201;-93
2022/09/09 07:41:54;;;;;;;7.40;2.43;;;17.20;84.30;;;;;;6126171;23;20141;-95
2022/09/09 07:44:24;;;;;;;8.93;3.00;;;17.00;91.30;;;;;;6125877;23;20131;-88
2022/09/09 07:46:54;;;;;;;6.87;2.90;;;17.20;93.00;;;;;;6129140;23;20147;-89
2022/09/09 07:49:32;;;;;;;8.47;2.80;;;17.00;93.00;;;;;;6128068;23;20156;-90
2022/09/09 07:52:00;;;;;;;5.37;2.60;;;17.10;94.40;;;;;;6123362;23;20143;-90
2022/09/09 07:54:31;;;;;;;7.83;2.20;;;17.10;94.50;;;;;;6115509;23;20158;-91
2022/09/09 07:56:58;;;;;;;8.33;2.63;;;17.20;93.70;;;;;;6111835;23;20164;-92
2022/09/09 07:59:27;;;;;;;8.20;2.17;;;17.30;92.50;;;;;;6118478;23;20147;-88
2022/09/09 08:01:56;;;;;;;6.77;2.23;;;17.30;92.10;;;;;;6128319;23;20142;-89
2022/09/09 08:05:02;;;;;;;8.27;2.80;;;17.30;91.60;;;;;;6125026;23;20153;-89
2022/09/09 08:07:40;;;;;;;13.30;3.10;;;17.40;92.80;;;;;;6112811;23;20219;-89
2022/09/09 08:10:17;;;;;;;7.00;2.20;;;17.50;91.70;;;;;;6122741;23;20170;-90
2022/09/09 08:12:43;;;;;;;5.90;2.10;;;17.50;90.80;;;;;;6105711;23;20156;-89
2022/09/09 08:15:09;;;;;;;8.33;2.43;;;17.50;88.70;;;;;;6105690;23;20151;-91
2022/09/09 08:17:37;;;;;;;9.40;2.63;;;17.60;88.20;;;;;;6120926;23;20176;-90
2022/09/09 08:20:04;;;;;;;13.03;3.27;;;17.60;86.70;;;;;;6128704;23;20155;-89
2022/09/09 08:22:32;;;;;;;10.67;2.90;;;17.60;86.30;;;;;;6104600;23;20167;-89
2022/09/09 08:24:58;;;;;;;8.83;2.73;;;17.60;85.60;;;;;;6119812;23;20144;-91
2022/09/09 08:27:32;;;;;;;10.13;3.00;;;17.60;86.50;;;;;;6118745;23;20148;-90
2022/09/09 08:33:19;;;;;;;6.73;2.17;;;17.60;84.60;;;;;;6133296;23;20478;-90
2022/09/09 08:35:54;;;;;;;8.70;2.60;;;17.60;80.20;;;;;;6110062;23;20151;-91
2022/09/09 08:38:20;;;;;;;9.53;2.67;;;17.70;82.80;;;;;;6109166;23;20591;-92
2022/09/09 08:40:51;;;;;;;8.20;2.83;;;17.50;85.50;;;;;;6132804;23;20177;-89
2022/09/09 08:43:20;;;;;;;9.80;3.00;;;17.60;88.00;;;;;;6081963;23;20600;-90
2022/09/09 08:46:00;;;;;;;8.10;2.57;;;17.40;90.30;;;;;;6104746;23;20159;-90
2022/09/09 08:48:54;;;;;;;9.77;2.93;;;17.40;92.30;;;;;;6104339;23;20154;-90
2022/09/09 08:51:20;;;;;;;6.03;2.77;;;17.30;93.00;;;;;;6105271;23;20158;-91
2022/09/09 08:53:50;;;;;;;11.17;2.93;;;17.30;93.40;;;;;;6109547;23;20605;-91
2022/09/09 08:56:23;;;;;;;8.60;2.73;;;17.30;94.00;;;;;;6134060;23;20248;-93
2022/09/09 08:58:53;;;;;;;8.93;2.77;;;17.30;94.40;;;;;;6106761;23;20195;-90
2022/09/09 09:01:47;;;;;;;7.20;2.80;;;17.30;94.20;;;;;;6113156;23;20147;-89
2022/09/09 09:04:39;;;;;;;15.03;3.30;;;17.30;94.00;;;;;;6150636;23;20173;-90
2022/09/09 09:07:35;;;;;;;12.33;3.43;;;17.30;93.60;;;;;;6065817;23;20155;-90
2022/09/09 09:10:42;;;;;;;9.00;2.60;;;17.30;94.30;;;;;;6106896;23;20154;-89
2022/09/09 09:13:33;;;;;;;8.33;2.77;;;17.30;94.30;;;;;;6108267;23;20576;-90
2022/09/09 09:16:26;;;;;;;10.90;3.00;;;17.30;95.10;;;;;;6106897;23;20152;-89
2022/09/09 09:18:54;;;;;;;8.13;2.53;;;17.30;94.50;;;;;;6104710;23;20327;-90
2022/09/09 09:21:43;;;;;;;8.87;3.03;;;17.30;95.20;;;;;;6105044;23;20154;-90
2022/09/09 09:24:50;;;;;;;9.03;3.10;;;17.20;95.90;;;;;;6104479;23;20570;-90
2022/09/09 09:27:44;;;;;;;8.67;3.23;;;17.30;96.70;;;;;;6103845;23;20478;-89
2022/09/09 09:30:19;;;;;;;9.67;2.83;;;17.30;97.70;;;;;;6080533;23;20490;-89
2022/09/09 09:32:53;;;;;;;6.00;2.70;;;17.30;97.90;;;;;;6139030;23;20191;-94
2022/09/09 09:35:18;;;;;;;11.07;3.20;;;17.30;98.80;;;;;;6112409;23;20600;-92
2022/09/09 09:37:46;;;;;;;8.50;2.73;;;17.40;99.40;;;;;;6110584;23;20194;-91
2022/09/09 09:40:19;;;;;;;9.57;2.90;;;17.40;98.40;;;;;;6117613;23;20178;-93
2022/09/09 09:42:54;;;;;;;8.63;2.80;;;17.30;98.10;;;;;;6122062;23;20154;-90
2022/09/09 09:45:45;;;;;;;8.03;2.93;;;17.30;98.30;;;;;;6129007;23;20203;-94
2022/09/09 09:48:13;;;;;;;9.10;2.87;;;17.30;99.10;;;;;;6129379;23;20139;-95
2022/09/09 09:50:53;;;;;;;8.23;2.77;;;17.30;98.80;;;;;;6127475;23;20162;-89
2022/09/09 09:53:23;;;;;;;8.50;3.27;;;17.40;98.70;;;;;;6116382;23;20238;-91
2022/09/09 09:56:06;;;;;;;9.43;2.97;;;17.50;97.90;;;;;;6116185;23;20160;-90
2022/09/09 09:58:49;;;;;;;9.33;2.90;;;17.50;97.90;;;;;;6113188;23;20634;-90
2022/09/09 10:01:33;;;;;;;10.20;3.00;;;17.40;96.80;;;;;;6084486;23;20146;-91
2022/09/09 10:04:16;;;;;;;13.77;3.40;;;17.40;97.30;;;;;;6105466;23;20239;-90
2022/09/09 10:06:47;;;;;;;7.77;2.90;;;17.40;97.40;;;;;;6104740;23;20159;-90
2022/09/09 10:09:28;;;;;;;7.37;2.57;;;17.40;96.80;;;;;;6133151;23;20143;-90
2022/09/09 10:12:00;;;;;;;8.40;2.93;;;17.40;96.70;;;;;;6107157;23;20178;-93
2022/09/09 10:14:53;;;;;;;10.47;2.57;;;17.40;96.70;;;;;;6107747;23;20150;-95
2022/09/09 10:17:29;;;;;;;9.60;2.53;;;17.50;95.90;;;;;;6109701;23;20174;-91
2022/09/09 10:20:21;;;;;;;9.93;2.93;;;17.60;95.60;;;;;;6106777;23;20273;-90
2022/09/09 10:23:07;;;;;;;6.07;2.70;;;17.60;93.70;;;;;;6106287;23;20153;-92
2022/09/09 10:26:07;;;;;;;9.03;2.70;;;17.70;92.70;;;;;;6106991;23;20149;-92
2022/09/09 10:29:02;;;;;;;8.90;2.40;;;17.70;91.80;;;;;;6107237;23;20214;-90
2022/09/09 10:31:49;;;;;;;7.13;2.60;;;17.90;90.20;;;;;;6123696;23;20152;-91
2022/09/09 10:35:03;;;;;;;7.57;2.33;;;18.10;88.40;;;;;;6118990;23;20155;-94
2022/09/09 10:37:31;;;;;;;7.40;2.50;;;18.30;85.00;;;;;;5996649;23;20214;-91
2022/09/09 10:40:15;;;;;;;8.40;2.43;;;18.40;78.10;;;;;;6102718;23;20198;-91
2022/09/09 10:42:42;;;;;;;7.83;2.70;;;18.50;79.20;;;;;;6119066;23;20169;-89
2022/09/09 10:45:39;;;;;;;8.10;2.70;;;18.70;76.50;;;;;;6124751;23;20143;-90
2022/09/09 10:48:16;;;;;;;8.90;2.93;;;18.70;70.40;;;;;;6126019;23;20224;-90
2022/09/09 10:50:55;;;;;;;6.27;2.70;;;18.70;69.90;;;;;;6128099;23;20145;-89
2022/09/09 10:54:00;;;;;;;8.17;2.80;;;18.80;67.50;;;;;;6125623;23;20176;-87
2022/09/09 10:56:30;;;;;;;6.70;2.60;;;19.00;63.50;;;;;;6116865;23;20597;-91
2022/09/09 10:59:49;;;;;;;10.40;2.97;;;19.00;63.90;;;;;;6117569;23;20184;-89
2022/09/09 11:03:09;;;;;;;8.77;2.93;;;19.00;65.30;;;;;;6135366;23;20145;-89
2022/09/09 11:06:22;;;;;;;7.57;2.10;;;19.10;61.20;;;;;;6104510;23;20206;-88
2022/09/09 11:08:57;;;;;;;7.40;2.73;;;19.00;56.10;;;;;;6105624;23;20156;-89
2022/09/09 11:11:41;;;;;;;5.77;2.33;;;18.90;60.60;;;;;;6106552;23;20579;-89
2022/09/09 11:14:20;;;;;;;5.60;2.17;;;18.80;61.20;;;;;;6105616;23;20197;-88
2022/09/09 11:17:09;;;;;;;7.70;1.95;;;18.90;59.10;;;;;;6105166;23;20168;-89
2022/09/09 11:19:44;;;;;;;6.77;2.17;;;18.90;58.00;;;;;;6104521;23;20453;-91
2022/09/09 11:22:38;;;;;;;6.60;2.07;;;18.90;54.40;;;;;;6107682;23;20147;-89
2022/09/09 11:25:23;;;;;;;6.60;2.37;;;19.00;52.30;;;;;;6109199;23;20672;-89
2022/09/09 11:28:32;;;;;;;7.37;2.30;;;18.90;52.40;;;;;;6119890;23;20148;-90
2022/09/09 11:31:18;;;;;;;7.10;2.30;;;18.90;56.00;;;;;;6112353;23;20160;-89
2022/09/09 11:34:27;;;;;;;8.33;2.27;;;18.90;58.40;;;;;;6112639;23;20576;-89
2022/09/09 11:40:39;;;;;;;7.57;2.00;;;18.70;62.10;;;;;;6134478;23;20256;-88
2022/09/09 11:43:12;;;;;;;7.40;2.17;;;18.70;60.80;;;;;;6114720;23;20556;-87
2022/09/09 11:45:40;;;;;;;6.40;2.43;;;18.80;59.30;;;;;;6092908;23;20155;-88
2022/09/09 11:48:38;;;;;;;5.50;2.10;;;18.80;56.70;;;;;;6115696;23;20175;-87
2022/09/09 11:51:12;;;;;;;5.87;2.23;;;18.90;57.20;;;;;;6134240;23;20137;-88
2022/09/09 11:56:51;;;;;;;6.47;2.10;;;19.00;56.10;;;;;;6134380;23;20226;-88
2022/09/09 12:00:01;;;;;;;9.90;2.40;;;19.00;53.60;;;;;;6108573;23;20219;-89
2022/09/09 12:02:36;;;;;;;5.20;2.03;;;19.00;55.30;;;;;;6108395;23;20620;-87
2022/09/09 12:05:23;;;;;;;7.77;2.47;;;18.90;55.80;;;;;;6110686;23;20293;-91
2022/09/09 12:08:03;;;;;;;6.40;2.37;;;18.80;56.40;;;;;;6113678;23;20161;-92
2022/09/09 12:10:35;;;;;;;7.97;1.97;;;18.80;57.20;;;;;;6110232;23;20600;-94
2022/09/09 12:13:28;;;;;;;6.67;2.50;;;18.80;58.00;;;;;;6136173;23;20164;-90
2022/09/09 12:16:05;;;;;;;6.47;2.00;;;18.90;57.40;;;;;;6129999;23;20545;-91
2022/09/09 12:18:39;;;;;;;7.53;2.20;;;18.90;59.20;;;;;;6109865;23;20190;-88
2022/09/09 12:21:33;;;;;;;7.83;2.60;;;18.90;57.70;;;;;;6108943;23;20174;-89
2022/09/09 12:24:11;;;;;;;6.87;2.40;;;18.90;56.70;;;;;;6106705;23;20156;-89
2022/09/09 12:27:07;;;;;;;5.60;2.23;;;18.90;58.50;;;;;;6094764;23;20154;-93
2022/09/09 12:29:47;;;;;;;7.00;2.10;;;19.00;55.80;;;;;;6129690;23;20141;-89
2022/09/09 12:32:24;;;;;;;7.63;2.37;;;19.00;56.40;;;;;;6119317;23;20157;-90
2022/09/09 12:35:01;;;;;;;5.67;1.70;;;19.00;53.50;;;;;;6118561;23;20155;-89
2022/09/09 12:38:11;;;;;;;5.33;2.13;;;19.10;53.10;;;;;;6115807;23;20188;-90
2022/09/09 12:40:40;;;;;;;5.57;1.67;;;19.20;52.20;;;;;;6107613;23;20171;-88
2022/09/09 12:43:42;;;;;;;5.90;1.80;;;19.20;46.40;;;;;;6110174;23;20164;-89
2022/09/09 12:46:36;;;;;;;4.97;1.80;;;19.30;46.80;;;;;;6108632;23;20212;-87
2022/09/09 12:49:04;;;;;;;3.93;1.67;;;19.40;42.10;;;;;;6088661;23;20262;-90
2022/09/09 12:51:32;;;;;;;10.13;1.63;;;19.60;41.10;;;;;;6106492;23;20228;-90
2022/09/09 12:53:59;;;;;;;6.63;1.90;;;19.50;31.80;;;;;;6107181;23;20190;-89
2022/09/09 12:56:32;;;;;;;5.10;1.43;;;19.40;33.40;;;;;;6110879;23;20156;-90
2022/09/09 12:59:24;;;;;;;5.23;1.73;;;19.40;32.90;;;;;;6149478;23;20195;-89
2022/09/09 13:01:59;;;;;;;4.53;1.50;;;19.40;30.90;;;;;;6129428;23;20181;-90
2022/09/09 13:04:25;;;;;;;4.07;1.30;;;19.50;30.30;;;;;;6128560;23;20209;-90
2022/09/09 13:07:06;;;;;;;4.70;1.80;;;19.40;32.60;;;;;;6123081;23;20173;-88
2022/09/09 13:09:37;;;;;;;4.83;1.60;;;19.50;32.70;;;;;;6119058;23;20152;-89
2022/09/09 13:12:13;;;;;;;3.87;1.70;;;19.60;32.30;;;;;;6113947;23;20149;-89
2022/09/09 13:14:56;;;;;;;6.90;1.70;;;19.50;32.20;;;;;;6087219;23;20179;-90
2022/09/09 13:17:32;;;;;;;3.43;1.33;;;19.60;34.90;;;;;;6123190;23;20196;-90
2022/09/09 13:20:30;;;;;;;5.27;1.90;;;19.70;33.30;;;;;;6129252;23;20170;-91
2022/09/09 13:23:00;;;;;;;4.83;1.73;;;19.80;31.40;;;;;;6098021;23;20155;-89
2022/09/09 13:25:34;;;;;;;4.17;1.50;;;19.80;26.00;;;;;;6139045;23;20204;-89
2022/09/09 13:28:02;;;;;;;5.63;1.60;;;19.80;23.30;;;;;;6110858;23;20162;-90
2022/09/09 13:30:39;;;;;;;8.67;2.20;;;19.90;23.90;;;;;;6110436;23;20240;-91
2022/09/09 13:33:14;;;;;;;3.20;1.50;;;20.00;19.00;;;;;;6110300;23;20161;-89
2022/09/09 13:35:55;;;;;;;3.30;1.53;;;20.10;16.70;;;;;;6110763;23;20176;-94
2022/09/09 13:38:55;;;;;;;3.00;1.30;;;20.10;15.90;;;;;;6125201;23;20227;-88
2022/09/09 13:41:28;;;;;;;4.93;1.67;;;20.10;8.80;;;;;;6125448;23;20240;-90
2022/09/09 13:43:55;;;;;;;6.13;1.87;;;20.00;13.00;;;;;;6097772;23;20215;-89
2022/09/09 13:46:42;;;;;;;5.40;1.40;;;20.00;11.90;;;;;;6112190;23;20151;-89
2022/09/09 13:49:15;;;;;;;3.53;1.50;;;20.10;9.80;;;;;;6133832;23;20149;-92
2022/09/09 13:51:46;;;;;;;8.67;2.07;;;20.30;7.80;;;;;;6122072;23;20240;-89
2022/09/09 13:54:31;;;;;;;5.17;1.73;;;20.40;1.00;;;;;;6116513;23;20213;-89
2022/09/09 13:57:04;;;;;;;3.53;1.33;;;20.40;1.00;;;;;;6121827;23;20186;-90
2022/09/09 13:59:36;;;;;;;5.97;1.67;;;20.40;1.00;;;;;;6112147;23;20179;-91
2022/09/09 14:02:08;;;;;;;5.73;2.00;;;20.40;1.00;;;;;;6137441;23;20170;-89
2022/09/09 14:04:45;;;;;;;6.40;1.70;;;20.40;1.00;;;;;;6112956;23;20142;-91
2022/09/09 14:07:16;;;;;;;7.53;1.80;;;20.60;1.00;;;;;;6115102;23;20151;-92
2022/09/09 14:10:01;;;;;;;5.77;1.77;;;20.60;1.00;;;;;;6112410;23;20156;-89
2022/09/09 14:12:29;;;;;;;4.10;1.50;;;20.70;1.00;;;;;;6086835;23;20162;-88
2022/09/09 14:14:57;;;;;;;4.10;1.80;;;20.80;1.00;;;;;;6111206;23;20147;-92
2022/09/09 14:17:44;;;;;;;7.63;2.00;;;20.70;1.00;;;;;;6091319;23;20268;-89
2022/09/09 14:20:15;;;;;;;5.17;1.60;;;20.60;1.00;;;;;;6118499;23;20154;-88
2022/09/09 14:22:44;;;;;;;5.43;1.93;;;20.50;1.00;;;;;;6139625;23;20163;-89
2022/09/09 14:25:17;;;;;;;4.23;1.67;;;20.50;1.00;;;;;;6139118;23;20147;-88
2022/09/09 14:27:51;;;;;;;5.10;2.00;;;20.40;2.00;;;;;;6113166;23;20151;-93
2022/09/09 14:30:16;;;;;;;4.07;1.60;;;20.40;1.00;;;;;;6110309;23;20150;-95
2022/09/09 14:32:43;;;;;;;4.47;1.70;;;20.40;4.50;;;;;;6109557;23;20214;-88
2022/09/09 14:35:12;;;;;;;5.37;1.70;;;20.50;2.60;;;;;;6112197;23;20238;-91
2022/09/09 14:37:41;;;;;;;4.27;1.50;;;20.60;1.00;;;;;;6142310;23;20178;-91
2022/09/09 14:40:15;;;;;;;5.40;1.57;;;20.70;1.00;;;;;;6121940;23;20199;-94
2022/09/09 14:42:45;;;;;;;5.17;2.00;;;20.90;1.00;;;;;;6122168;23;20173;-91
2022/09/09 14:45:12;;;;;;;4.20;1.60;;;21.00;1.00;;;;;;6125052;23;20147;-90
2022/09/09 14:47:39;;;;;;;4.03;1.63;;;21.10;1.00;;;;;;6148103;23;20152;-88
2022/09/09 14:50:13;;;;;;;6.90;1.60;;;21.10;1.00;;;;;;6096210;23;20170;-89
2022/09/09 14:52:45;;;;;;;3.50;1.63;;;21.20;1.00;;;;;;6125378;23;20149;-92
2022/09/09 14:55:11;;;;;;;4.40;1.67;;;21.30;1.00;;;;;;6123976;23;20131;-89
2022/09/09 14:57:39;;;;;;;5.50;1.67;;;21.00;1.00;;;;;;6123186;23;20677;-92
2022/09/09 15:00:07;;;;;;;3.60;1.40;;;20.80;1.00;;;;;;6122187;23;20147;-93
2022/09/09 15:02:35;;;;;;;4.47;1.50;;;20.90;1.00;;;;;;6114612;23;20139;-96
2022/09/09 15:05:16;;;;;;;4.27;1.53;;;21.00;1.00;;;;;;6110673;23;20584;-90
2022/09/09 15:07:43;;;;;;;8.47;2.10;;;20.90;1.00;;;;;;6137284;23;20167;-93
2022/09/09 15:10:10;;;;;;;5.33;1.83;;;20.90;1.00;;;;;;6111294;23;20155;-93
2022/09/09 15:12:38;;;;;;;4.50;1.90;;;21.00;1.00;;;;;;6116498;23;20155;-94
2022/09/09 15:15:06;;;;;;;4.60;1.67;;;20.90;1.00;;;;;;6111932;23;20152;-92
2022/09/09 15:17:32;;;;;;;5.00;1.47;;;20.80;1.00;;;;;;6083930;23;20186;-91
2022/09/09 15:20:00;;;;;;;4.47;1.70;;;20.80;1.00;;;;;;6106264;23;20169;-90
2022/09/09 15:22:26;;;;;;;4.57;1.60;;;20.70;1.00;;;;;;6106962;23;20143;-89
2022/09/09 15:24:55;;;;;;;4.30;1.87;;;20.70;1.00;;;;;;6103895;23;20164;-90
2022/09/09 15:27:22;;;;;;;5.93;2.07;;;20.80;1.00;;;;;;6106207;23;20159;-92
2022/09/09 15:29:48;;;;;;;4.40;2.23;;;20.90;1.00;;;;;;6107023;23;20201;-90
2022/09/09 15:32:17;;;;;;;4.23;1.80;;;20.80;1.00;;;;;;6133714;23;20151;-91
2022/09/09 15:34:54;;;;;;;3.27;1.43;;;20.70;1.00;;;;;;6111512;23;20285;-91